Flight Track Log - Related Links

Times and Time Zones

All times are in EDT time to prevent confusion due to time zone crossing. See the TPA703 flight status page for this flight to view local times or setup timezone preferences in your user account.

Time Position Orientation Groundspeed Altitude Reporting Facility
EDT Latitude Longitude Course Direction KTS MPH feet Rate Location/Type
Wed 06:51:12 AM 25.7870 -80.2870 222° Southwest 163 188 400  Level FlightAware ADS-B
Wed 06:51:42 AM 25.7820 -80.2620 103° East 170 196 1,500 1,800 Climbing FlightAware ADS-B
Wed 06:52:12 AM 25.7720 -80.2340 112° Southeast 220 253 2,200 1,467 Climbing FlightAware ADS-B
Wed 06:52:27 AM 25.7650 -80.2160 113° Southeast 247 284 2,600 2,550 Climbing FlightAware ADS-B
Wed 06:52:52 AM 25.7530 -80.1870 115° Southeast 258 297 3,900 3,150 Climbing FlightAware ADS-B
Wed 06:53:07 AM 25.7410 -80.1720 132° Southeast 262 302 4,700 3,000 Climbing FlightAware ADS-B
Wed 06:53:22 AM 25.7250 -80.1630 153° Southeast 269 310 5,400 2,400 Climbing FlightAware ADS-B
Wed 06:53:52 AM 25.6880 -80.1460 158° South 278 320 6,500 1,527 Climbing FlightAware ADS-B
Wed 06:54:17 AM 25.6580 -80.1350 162° South 280 322 6,800 600 Climbing FlightAware ADS-B
Wed 06:54:32 AM 25.6390 -80.1270 159° South 281 323 6,900 267 Climbing FlightAware ADS-B
Wed 06:55:02 AM 25.6020 -80.1130 161° South 280 322 7,000 109 Climbing FlightAware ADS-B
Wed 06:55:27 AM 25.5730 -80.1000 158° South 283 326 7,000  Level FlightAware ADS-B
Wed 06:55:57 AM 25.5360 -80.0840 159° South 282 325 7,000 655 Level FlightAware ADS-B
Wed 06:56:22 AM 25.5040 -80.0710 160° South 283 326 7,600 2,509 Climbing FlightAware ADS-B
Wed 06:56:52 AM 25.4670 -80.0570 161° South 287 330 9,300 3,200 Climbing FlightAware ADS-B
Wed 06:57:07 AM 25.4490 -80.0490 158° South 292 336 10,000 1,800 Climbing FlightAware ADS-B
Wed 06:58:02 AM 25.3770 -80.0230 162° South 336 387 11,400 2,182 Climbing FlightAware ADS-B
Wed 06:58:57 AM 25.2820 -79.9890 162° South 367 422 14,000 2,443 Climbing FlightAware ADS-B
Wed 07:00:22 AM 25.1530 -79.9410 161° South 390 449 17,100 2,352 Climbing FlightAware ADS-B
Wed 07:01:02 AM 25.0750 -79.9120 161° South 399 459 18,900 2,541 Climbing FlightAware ADS-B
Wed 07:01:47 AM 24.9920 -79.8820 162° South 408 470 20,700 2,087 Climbing FlightAware ADS-B
Wed 07:02:57 AM 24.8770 -79.8430 163° South 418 481 22,900 1,886 Climbing FlightAware ADS-B
Wed 07:04:07 AM 24.7460 -79.8010 164° South 424 488 25,100 1,600 Climbing FlightAware ADS-B
Wed 07:05:12 AM 24.6160 -79.7580 163° South 436 502 26,500 800 Climbing FlightAware ADS-B
Wed 07:05:52 AM 24.5510 -79.7360 163° South 436 502 26,500 1,694 Level FlightAware ADS-B
Wed 07:06:37 AM 24.4410 -79.7000 163° South 439 505 28,900 1,694 Climbing FlightAware ADS-B
Wed 07:07:17 AM 24.3750 -79.6780 163° South 439 505 28,900  Level FlightAware ADS-B
Wed 07:07:57 AM 24.3090 -79.6560 163° South 439 505 28,900  Level FlightAware ADS-B
Wed 07:08:47 AM 24.2260 -79.6280 163° South 439 505 28,900  Level FlightAware ADS-B
Wed 07:09:27 AM 24.1600 -79.6060 163° South 439 505 28,900  Level FlightAware ADS-B
Wed 07:10:07 AM 24.0940 -79.5840 163° South 439 505 28,900 4,500 Level FlightAware ADS-B
Wed 07:10:39 AM 23.9350 -79.5369 163° South 480 552 34,300 117 Climbing Miami Center
Wed 07:12:00 AM 23.7870 -79.4726 158° South  Level FlightAware Approximate
Wed 07:19:00 AM 23.0113 -79.1611 162° South  Level FlightAware Approximate
Wed 07:20:00 AM 22.8993 -79.1208 162° South  Level FlightAware Approximate
Wed 07:21:00 AM 22.7873 -79.0807 162° South  Level FlightAware Approximate
Wed 07:22:00 AM 22.6753 -79.0405 162° South  Level FlightAware Approximate
Wed 07:23:00 AM 22.5633 -79.0005 162° South  Level FlightAware Approximate
Wed 07:24:00 AM 22.4513 -78.9604 162° South  Level FlightAware Approximate
Wed 07:25:00 AM 22.3392 -78.9205 162° South  Level FlightAware Approximate
Wed 07:26:00 AM 22.2272 -78.8806 162° South  Level FlightAware Approximate
Wed 07:27:00 AM 22.1151 -78.8408 162° South  Level FlightAware Approximate
Wed 07:28:00 AM 22.0030 -78.8011 162° South  Level FlightAware Approximate
Wed 07:29:00 AM 21.8891 -78.7683 165° South  Level FlightAware Approximate
Wed 07:30:00 AM 21.7750 -78.7357 165° South  Level FlightAware Approximate
Wed 07:31:00 AM 21.6610 -78.7032 165° South  Level FlightAware Approximate
Wed 07:32:00 AM 21.5470 -78.6707 165° South  Level FlightAware Approximate
Wed 07:33:00 AM 21.4329 -78.6383 165° South  Level FlightAware Approximate
Wed 07:34:00 AM 21.3189 -78.6059 165° South  Level FlightAware Approximate
Wed 07:35:00 AM 21.2048 -78.5736 165° South  Level FlightAware Approximate
Wed 07:36:00 AM 21.0908 -78.5413 165° South  Level FlightAware Approximate
Wed 07:37:00 AM 20.9767 -78.5091 165° South  Level FlightAware Approximate
Wed 07:38:00 AM 20.8626 -78.4769 165° South  Level FlightAware Approximate
Wed 07:39:00 AM 20.7485 -78.4448 165° South  Level FlightAware Approximate
Wed 07:40:00 AM 20.6345 -78.4127 165° South  Level FlightAware Approximate
Wed 07:41:00 AM 20.5204 -78.3807 165° South  Level FlightAware Approximate
Wed 07:42:00 AM 20.4063 -78.3487 165° South  Level FlightAware Approximate
Wed 07:43:00 AM 20.2922 -78.3168 165° South  Level FlightAware Approximate
Wed 07:44:00 AM 20.1780 -78.2849 165° South  Level FlightAware Approximate
Wed 07:45:00 AM 20.0639 -78.2530 165° South  Level FlightAware Approximate
Wed 07:46:00 AM 19.9498 -78.2213 165° South  Level FlightAware Approximate
Wed 07:47:00 AM 19.8358 -78.1891 165° South  Level FlightAware Approximate
Wed 07:48:00 AM 19.7218 -78.1569 165° South  Level FlightAware Approximate
Wed 07:49:00 AM 19.6078 -78.1247 165° South  Level FlightAware Approximate
Wed 07:50:00 AM 19.4937 -78.0926 165° South  Level FlightAware Approximate
Wed 07:51:00 AM 19.3797 -78.0606 165° South  Level FlightAware Approximate
Wed 07:52:00 AM 19.2657 -78.0285 165° South  Level FlightAware Approximate
Wed 07:53:00 AM 19.1516 -77.9966 165° South  Level FlightAware Approximate
Wed 07:54:00 AM 19.0376 -77.9646 165° South  Level FlightAware Approximate
Wed 07:55:00 AM 18.9235 -77.9327 165° South  Level FlightAware Approximate
Wed 07:56:00 AM 18.8095 -77.9009 165° South  Level FlightAware Approximate
Wed 07:57:00 AM 18.6954 -77.8691 165° South  Level FlightAware Approximate
Wed 07:58:00 AM 18.5814 -77.8373 165° South  Level FlightAware Approximate
Wed 07:59:00 AM 18.4673 -77.8056 165° South  Level FlightAware Approximate
Wed 08:00:00 AM 18.3532 -77.7740 165° South  Level FlightAware Approximate
Wed 08:01:00 AM 18.2391 -77.7423 165° South  Level FlightAware Approximate
Wed 08:02:00 AM 18.1251 -77.7107 165° South  Level FlightAware Approximate
Wed 08:03:00 AM 18.0110 -77.6792 165° South  Level FlightAware Approximate
Wed 08:04:00 AM 17.8969 -77.6477 165° South  Level FlightAware Approximate
Wed 08:05:00 AM 17.7828 -77.6162 165° South  Level FlightAware Approximate
Wed 08:06:00 AM 17.6687 -77.5848 165° South  Level FlightAware Approximate
Wed 08:07:00 AM 17.5546 -77.5534 165° South  Level FlightAware Approximate
Wed 08:08:00 AM 17.4404 -77.5220 165° South  Level FlightAware Approximate
Wed 08:09:00 AM 17.3263 -77.4907 165° South  Level FlightAware Approximate
Wed 08:10:00 AM 17.2122 -77.4595 165° South  Level FlightAware Approximate
Wed 08:11:00 AM 17.0980 -77.4285 166° South  Level FlightAware Approximate
Wed 08:12:00 AM 16.9834 -77.3991 166° South  Level FlightAware Approximate
Wed 08:13:00 AM 16.8689 -77.3698 166° South  Level FlightAware Approximate
Wed 08:14:00 AM 16.7543 -77.3404 166° South  Level FlightAware Approximate
Wed 08:15:00 AM 16.6397 -77.3112 166° South  Level FlightAware Approximate
Wed 08:16:00 AM 16.5251 -77.2819 166° South  Level FlightAware Approximate
Wed 08:17:00 AM 16.4105 -77.2527 166° South  Level FlightAware Approximate
Wed 08:18:00 AM 16.2964 -77.2215 165° South  Level FlightAware Approximate
Wed 08:19:00 AM 16.1824 -77.1900 165° South  Level FlightAware Approximate
Wed 08:20:00 AM 16.0683 -77.1587 165° South  Level FlightAware Approximate
Wed 08:21:00 AM 15.9543 -77.1274 165° South  Level FlightAware Approximate
Wed 08:22:00 AM 15.8402 -77.0961 165° South  Level FlightAware Approximate
Wed 08:23:00 AM 15.7261 -77.0648 165° South  Level FlightAware Approximate
Wed 08:24:00 AM 15.6121 -77.0336 165° South  Level FlightAware Approximate
Wed 08:25:00 AM 15.4980 -77.0024 165° South  Level FlightAware Approximate
Wed 08:26:00 AM 15.3839 -76.9713 165° South  Level FlightAware Approximate
Wed 08:27:00 AM 15.2698 -76.9401 165° South  Level FlightAware Approximate
Wed 08:28:00 AM 15.1557 -76.9090 165° South  Level FlightAware Approximate
Wed 08:29:00 AM 15.0416 -76.8780 165° South  Level FlightAware Approximate
Wed 08:30:00 AM 14.9265 -76.8517 169° South  Level FlightAware Approximate
Wed 08:31:00 AM 14.8107 -76.8282 169° South  Level FlightAware Approximate
Wed 08:32:00 AM 14.6950 -76.8047 169° South  Level FlightAware Approximate
Wed 08:33:00 AM 14.5792 -76.7812 169° South  Level FlightAware Approximate
Wed 08:34:00 AM 14.4634 -76.7578 169° South  Level FlightAware Approximate
Wed 08:35:00 AM 14.3477 -76.7343 169° South  Level FlightAware Approximate
Wed 08:36:00 AM 14.2319 -76.7109 169° South  Level FlightAware Approximate
Wed 08:37:00 AM 14.1161 -76.6875 169° South  Level FlightAware Approximate
Wed 08:38:00 AM 14.0004 -76.6642 169° South  Level FlightAware Approximate
Wed 08:39:00 AM 13.8846 -76.6408 169° South  Level FlightAware Approximate
Wed 08:40:00 AM 13.7688 -76.6175 169° South  Level FlightAware Approximate
Wed 08:41:00 AM 13.6530 -76.5942 169° South  Level FlightAware Approximate
Wed 08:42:00 AM 13.5373 -76.5710 169° South  Level FlightAware Approximate
Wed 08:43:00 AM 13.4215 -76.5477 169° South  Level FlightAware Approximate
Wed 08:44:00 AM 13.3057 -76.5245 169° South  Level FlightAware Approximate
Wed 08:45:00 AM 13.1899 -76.5013 169° South  Level FlightAware Approximate
Wed 08:46:00 AM 13.0741 -76.4781 169° South  Level FlightAware Approximate
Wed 08:47:00 AM 12.9583 -76.4550 169° South  Level FlightAware Approximate
Wed 08:48:00 AM 12.8425 -76.4318 169° South  Level FlightAware Approximate
Wed 08:49:00 AM 12.7268 -76.4086 169° South  Level FlightAware Approximate
Wed 08:50:00 AM 12.6110 -76.3854 169° South  Level FlightAware Approximate
Wed 08:51:00 AM 12.4952 -76.3621 169° South  Level FlightAware Approximate
Wed 08:52:00 AM 12.3795 -76.3390 169° South  Level FlightAware Approximate
Wed 08:53:00 AM 12.2637 -76.3158 169° South  Level FlightAware Approximate
Wed 08:53:37 AM 10.9290 -76.0610 169° South 439 505 41,000  Level FlightAware ADS-B
Wed 08:54:00 AM 12.1479 -76.2926 169° South  Level FlightAware Approximate
Wed 08:54:17 AM 10.8410 -76.0430 169° South 441 507 41,000  Level FlightAware ADS-B
Wed 08:54:47 AM 10.7820 -76.0320 170° South 441 507 41,000  Level FlightAware ADS-B
Wed 08:55:27 AM 10.6970 -76.0150 169° South 444 511 41,000  Level FlightAware ADS-B
Wed 08:55:57 AM 10.6450 -76.0040 168° South 444 511 41,000  Level FlightAware ADS-B
Wed 08:56:52 AM 10.5210 -75.9800 169° South 445 512 41,000  Level FlightAware ADS-B
Wed 08:57:22 AM 10.4680 -75.9690 168° South 446 513 41,000  Level FlightAware ADS-B
Wed 08:58:27 AM 10.3360 -75.9430 169° South 455 524 41,000  Level FlightAware ADS-B
Wed 08:59:12 AM 10.2310 -75.9230 169° South 446 513 41,000  Level FlightAware ADS-B
Wed 09:01:00 AM 10.0245 -75.8726 166° South  Level FlightAware Approximate
Wed 09:02:00 AM 9.9087 -75.8489 169° South  Level FlightAware Approximate
Wed 09:03:00 AM 9.7928 -75.8264 169° South  Level FlightAware Approximate
Wed 09:03:07 AM 9.7550 -75.8290 169° South 446 513 41,000  Level FlightAware ADS-B
Wed 09:03:47 AM 9.6750 -75.8120 168° South 446 513 41,000  Level FlightAware ADS-B
Wed 09:04:27 AM 9.6070 -75.7970 168° South 446 513 41,000  Level FlightAware ADS-B
Wed 09:05:07 AM 9.5380 -75.7820 168° South 446 513 41,000  Level FlightAware ADS-B
Wed 09:05:57 AM 9.4520 -75.7640 168° South 446 513 41,000  Level FlightAware ADS-B
Wed 09:08:00 AM 9.2146 -75.7171 169° South  Level FlightAware Approximate
Wed 09:09:00 AM 9.0988 -75.6943 169° South  Level FlightAware Approximate
Wed 09:10:00 AM 8.9830 -75.6715 169° South  Level FlightAware Approximate
Wed 09:11:00 AM 8.8672 -75.6487 169° South  Level FlightAware Approximate
Wed 09:12:00 AM 8.7514 -75.6259 169° South  Level FlightAware Approximate
Wed 09:13:00 AM 8.6356 -75.6031 169° South  Level FlightAware Approximate
Wed 09:14:00 AM 8.5198 -75.5804 169° South  Level FlightAware Approximate
Wed 09:15:00 AM 8.4040 -75.5580 169° South  Level FlightAware Approximate
Wed 09:16:00 AM 8.2880 -75.5363 169° South  Level FlightAware Approximate
Wed 09:17:00 AM 8.1720 -75.5148 171° South  Level FlightAware Approximate
Wed 09:18:00 AM 8.0556 -75.4954 171° South  Level FlightAware Approximate
Wed 09:19:00 AM 7.9399 -75.4725 166° South  Level FlightAware Approximate
Wed 09:20:00 AM 7.8247 -75.4500 180° South  Level FlightAware Approximate
Wed 09:21:00 AM 7.7067 -75.4500 180° South  Level FlightAware Approximate
Wed 09:22:00 AM 7.5888 -75.4480 176° South  Level FlightAware Approximate
Wed 09:23:00 AM 7.4712 -75.4396 176° South  Level FlightAware Approximate
Wed 09:24:00 AM 7.3534 -75.4333 180° South  Level FlightAware Approximate
Wed 09:25:00 AM 7.2354 -75.4333 180° South  Level FlightAware Approximate
Wed 09:26:00 AM 7.1175 -75.4333 180° South  Level FlightAware Approximate
Wed 09:27:00 AM 6.9995 -75.4327 178° South  Level FlightAware Approximate
Wed 09:28:00 AM 6.8816 -75.4281 178° South  Level FlightAware Approximate
Wed 09:29:00 AM 6.7638 -75.4236 178° South  Level FlightAware Approximate
Wed 09:30:00 AM 6.6459 -75.4191 178° South  Level FlightAware Approximate
Wed 09:31:00 AM 6.5279 -75.4167 180° South  Level FlightAware Approximate
Wed 09:32:00 AM 6.4100 -75.4167 180° South  Level FlightAware Approximate
Wed 09:33:00 AM 6.2920 -75.4167 180° South  Level FlightAware Approximate
Wed 09:34:00 AM 6.1740 -75.4167 180° South  Level FlightAware Approximate
Wed 09:35:00 AM 6.1645 -75.4231 180° South  Level Estimated
Wed 09:36:00 AM 6.1645 -75.4231 North  Level Estimated
Wed 09:37:00 AM 6.1645 -75.4231 North  Level Estimated
Wed 09:38:00 AM 6.1645 -75.4231 North  Level Estimated
Wed 09:39:00 AM 6.1645 -75.4231 North  Level Estimated
Wed 09:40:00 AM 6.1645 -75.4231 North  Level Estimated
Wed 09:41:00 AM 6.1645 -75.4231 North  Level Estimated
Wed 09:42:00 AM 6.1645 -75.4231 North  Level Estimated
Wed 09:43:00 AM 6.1645 -75.4231 North  Level Estimated
Wed 09:44:00 AM 6.1645 -75.4231 North  Level Estimated
Wed 09:45:00 AM 6.1645 -75.4231 North  Level Estimated
Wed 09:46:00 AM 6.1645 -75.4231 North  Level Estimated
Wed 09:47:00 AM 6.1645 -75.4231 North  Level Estimated
Wed 09:48:00 AM 6.1645 -75.4231 North  Level Estimated
Wed 09:49:00 AM 6.1645 -75.4231 North  Level Estimated
Wed 09:50:00 AM 6.1645 -75.4231 North  Level Estimated
Wed 09:51:00 AM 6.1645 -75.4231 North  Level Estimated
Wed 09:52:00 AM 6.1645 -75.4231 North  Level Estimated
Wed 09:53:00 AM 6.1645 -75.4231 North  Level Estimated
Wed 09:54:00 AM 6.1645 -75.4231 North  Level Estimated
Wed 09:55:00 AM 6.1645 -75.4231 North  Level Estimated
Wed 09:56:00 AM 6.1645 -75.4231 North  Level Estimated
Wed 09:57:00 AM 6.1645 -75.4231 North  Level Estimated
Wed 09:58:00 AM 6.1645 -75.4231 North  Level Estimated
Wed 09:59:00 AM 6.1645 -75.4231 North  Level Estimated
Wed 10:00:00 AM 6.1645 -75.4231 North  Level Estimated
Wed 10:01:00 AM 6.1645 -75.4231 North  Level Estimated
Wed 10:02:00 AM 6.1645 -75.4231 North  Level Estimated

Login

Don't have an account? Register now (free) for customized features, flight alerts, and more!